sensor_id;sensor_type;location;lat;lon;timestamp;temperature;humidity
68098;DHT22;54886;47.036;15.466;2022-10-23T00:01:00;11.77;88.01
68098;DHT22;54886;47.036;15.466;2022-10-23T00:03:34;11.76;87.80
68098;DHT22;54886;47.036;15.466;2022-10-23T00:06:05;11.70;88.29
68098;DHT22;54886;47.036;15.466;2022-10-23T00:08:31;11.69;88.42
68098;DHT22;54886;47.036;15.466;2022-10-23T00:10:56;11.68;88.21
68098;DHT22;54886;47.036;15.466;2022-10-23T00:13:22;11.68;88.15
68098;DHT22;54886;47.036;15.466;2022-10-23T00:15:47;11.65;87.98
68098;DHT22;54886;47.036;15.466;2022-10-23T00:18:12;11.66;88.38
68098;DHT22;54886;47.036;15.466;2022-10-23T00:20:38;11.65;88.58
68098;DHT22;54886;47.036;15.466;2022-10-23T00:23:03;11.62;88.66
68098;DHT22;54886;47.036;15.466;2022-10-23T00:25:29;11.61;88.09
68098;DHT22;54886;47.036;15.466;2022-10-23T00:27:54;11.62;88.32
68098;DHT22;54886;47.036;15.466;2022-10-23T00:30:20;11.61;88.39
68098;DHT22;54886;47.036;15.466;2022-10-23T00:32:45;11.59;88.49
68098;DHT22;54886;47.036;15.466;2022-10-23T00:35:10;11.58;88.37
68098;DHT22;54886;47.036;15.466;2022-10-23T00:37:36;11.54;87.95
68098;DHT22;54886;47.036;15.466;2022-10-23T00:40:03;11.52;88.30
68098;DHT22;54886;47.036;15.466;2022-10-23T00:42:28;11.54;88.25
68098;DHT22;54886;47.036;15.466;2022-10-23T00:47:19;11.48;88.49
68098;DHT22;54886;47.036;15.466;2022-10-23T00:49:45;11.52;88.27
68098;DHT22;54886;47.036;15.466;2022-10-23T00:52:11;11.48;88.28
68098;DHT22;54886;47.036;15.466;2022-10-23T00:54:42;11.48;87.24
68098;DHT22;54886;47.036;15.466;2022-10-23T00:57:11;11.51;87.19
68098;DHT22;54886;47.036;15.466;2022-10-23T00:59:38;11.52;87.35
68098;DHT22;54886;47.036;15.466;2022-10-23T01:02:04;11.48;88.40
68098;DHT22;54886;47.036;15.466;2022-10-23T01:04:31;11.51;88.26
68098;DHT22;54886;47.036;15.466;2022-10-23T01:15:15;11.49;86.95
68098;DHT22;54886;47.036;15.466;2022-10-23T01:17:51;11.46;87.49
68098;DHT22;54886;47.036;15.466;2022-10-23T01:28:10;11.43;87.36
68098;DHT22;54886;47.036;15.466;2022-10-23T01:30:40;11.42;86.51
68098;DHT22;54886;47.036;15.466;2022-10-23T01:33:10;11.42;87.19
68098;DHT22;54886;47.036;15.466;2022-10-23T01:36:08;11.39;87.16
68098;DHT22;54886;47.036;15.466;2022-10-23T01:38:51;11.35;87.01
68098;DHT22;54886;47.036;15.466;2022-10-23T01:44:46;11.34;88.01
68098;DHT22;54886;47.036;15.466;2022-10-23T01:47:15;11.30;88.17
68098;DHT22;54886;47.036;15.466;2022-10-23T01:49:42;11.28;88.26
68098;DHT22;54886;47.036;15.466;2022-10-23T01:52:11;11.28;88.45
68098;DHT22;54886;47.036;15.466;2022-10-23T01:54:39;11.28;88.44
68098;DHT22;54886;47.036;15.466;2022-10-23T01:57:13;11.30;88.47
68098;DHT22;54886;47.036;15.466;2022-10-23T01:59:52;11.28;88.50
68098;DHT22;54886;47.036;15.466;2022-10-23T02:02:21;11.31;88.44
68098;DHT22;54886;47.036;15.466;2022-10-23T02:04:57;11.25;88.31
68098;DHT22;54886;47.036;15.466;2022-10-23T02:07:24;11.27;88.62
68098;DHT22;54886;47.036;15.466;2022-10-23T02:09:50;11.28;87.81
68098;DHT22;54886;47.036;15.466;2022-10-23T02:12:36;11.25;88.23
68098;DHT22;54886;47.036;15.466;2022-10-23T02:18:06;11.27;88.42
68098;DHT22;54886;47.036;15.466;2022-10-23T02:20:47;11.25;88.51
68098;DHT22;54886;47.036;15.466;2022-10-23T02:25:55;11.21;87.72
68098;DHT22;54886;47.036;15.466;2022-10-23T02:28:25;11.24;87.72
68098;DHT22;54886;47.036;15.466;2022-10-23T02:30:53;11.20;87.95
68098;DHT22;54886;47.036;15.466;2022-10-23T02:33:20;11.21;88.08
68098;DHT22;54886;47.036;15.466;2022-10-23T02:35:47;11.18;88.28
68098;DHT22;54886;47.036;15.466;2022-10-23T02:40:55;11.13;88.34
68098;DHT22;54886;47.036;15.466;2022-10-23T02:43:33;11.13;87.97
68098;DHT22;54886;47.036;15.466;2022-10-23T02:48:47;11.11;88.11
68098;DHT22;54886;47.036;15.466;2022-10-23T02:54:13;11.11;87.78
68098;DHT22;54886;47.036;15.466;2022-10-23T02:59:25;11.06;86.76
68098;DHT22;54886;47.036;15.466;2022-10-23T03:02:00;11.10;87.22
68098;DHT22;54886;47.036;15.466;2022-10-23T03:04:27;11.10;87.23
68098;DHT22;54886;47.036;15.466;2022-10-23T03:06:53;11.06;87.97
68098;DHT22;54886;47.036;15.466;2022-10-23T03:09:19;11.07;87.67
68098;DHT22;54886;47.036;15.466;2022-10-23T03:11:45;11.04;87.90
68098;DHT22;54886;47.036;15.466;2022-10-23T03:14:11;11.01;87.32
68098;DHT22;54886;47.036;15.466;2022-10-23T03:16:37;11.01;87.60
68098;DHT22;54886;47.036;15.466;2022-10-23T03:19:03;11.01;86.61
68098;DHT22;54886;47.036;15.466;2022-10-23T03:21:28;10.99;87.42
68098;DHT22;54886;47.036;15.466;2022-10-23T03:23:54;10.96;87.38
68098;DHT22;54886;47.036;15.466;2022-10-23T03:26:19;10.93;87.80
68098;DHT22;54886;47.036;15.466;2022-10-23T03:28:44;10.92;87.60
68098;DHT22;54886;47.036;15.466;2022-10-23T03:31:10;10.87;87.57
68098;DHT22;54886;47.036;15.466;2022-10-23T03:33:35;10.89;86.88
68098;DHT22;54886;47.036;15.466;2022-10-23T03:36:01;10.89;87.01
68098;DHT22;54886;47.036;15.466;2022-10-23T03:38:26;10.86;87.45
68098;DHT22;54886;47.036;15.466;2022-10-23T03:40:52;10.79;87.39
68098;DHT22;54886;47.036;15.466;2022-10-23T03:43:17;10.79;86.93
68098;DHT22;54886;47.036;15.466;2022-10-23T03:45:42;10.79;87.32
68098;DHT22;54886;47.036;15.466;2022-10-23T03:48:08;10.77;86.67
68098;DHT22;54886;47.036;15.466;2022-10-23T03:50:34;10.75;87.32
68098;DHT22;54886;47.036;15.466;2022-10-23T03:53:00;10.70;87.42
68098;DHT22;54886;47.036;15.466;2022-10-23T03:55:25;10.70;87.12
68098;DHT22;54886;47.036;15.466;2022-10-23T03:57:54;10.70;86.83
68098;DHT22;54886;47.036;15.466;2022-10-23T04:00:20;10.70;86.91
68098;DHT22;54886;47.036;15.466;2022-10-23T04:02:46;10.66;87.32
68098;DHT22;54886;47.036;15.466;2022-10-23T04:05:11;10.65;87.36
68098;DHT22;54886;47.036;15.466;2022-10-23T04:07:37;10.66;87.38
68098;DHT22;54886;47.036;15.466;2022-10-23T04:10:04;10.65;86.70
68098;DHT22;54886;47.036;15.466;2022-10-23T04:12:29;10.60;87.35
68098;DHT22;54886;47.036;15.466;2022-10-23T04:14:55;10.60;87.23
68098;DHT22;54886;47.036;15.466;2022-10-23T04:17:20;10.58;87.17
68098;DHT22;54886;47.036;15.466;2022-10-23T04:19:46;10.59;86.59
68098;DHT22;54886;47.036;15.466;2022-10-23T04:22:11;10.52;87.01
68098;DHT22;54886;47.036;15.466;2022-10-23T04:24:36;10.52;86.68
68098;DHT22;54886;47.036;15.466;2022-10-23T04:27:02;10.52;86.67
68098;DHT22;54886;47.036;15.466;2022-10-23T04:29:27;10.51;86.85
68098;DHT22;54886;47.036;15.466;2022-10-23T04:31:56;10.53;86.44
68098;DHT22;54886;47.036;15.466;2022-10-23T04:34:21;10.52;86.85
68098;DHT22;54886;47.036;15.466;2022-10-23T04:36:47;10.53;86.08
68098;DHT22;54886;47.036;15.466;2022-10-23T04:39:12;10.52;86.88
68098;DHT22;54886;47.036;15.466;2022-10-23T04:41:38;10.48;86.35
68098;DHT22;54886;47.036;15.466;2022-10-23T04:44:04;10.45;86.88
68098;DHT22;54886;47.036;15.466;2022-10-23T04:46:29;10.40;87.13
68098;DHT22;54886;47.036;15.466;2022-10-23T04:48:55;10.41;86.02
68098;DHT22;54886;47.036;15.466;2022-10-23T04:51:20;10.30;87.44
68098;DHT22;54886;47.036;15.466;2022-10-23T04:53:46;10.32;86.93
68098;DHT22;54886;47.036;15.466;2022-10-23T04:56:13;10.34;87.23
68098;DHT22;54886;47.036;15.466;2022-10-23T04:58:40;10.30;87.62
68098;DHT22;54886;47.036;15.466;2022-10-23T05:01:05;10.30;87.33
68098;DHT22;54886;47.036;15.466;2022-10-23T05:03:31;10.32;87.03
68098;DHT22;54886;47.036;15.466;2022-10-23T05:05:57;10.31;86.55
68098;DHT22;54886;47.036;15.466;2022-10-23T05:08:23;10.31;86.79
68098;DHT22;54886;47.036;15.466;2022-10-23T05:10:49;10.34;86.63
68098;DHT22;54886;47.036;15.466;2022-10-23T05:13:18;10.28;86.69
68098;DHT22;54886;47.036;15.466;2022-10-23T05:15:52;10.24;86.75
68098;DHT22;54886;47.036;15.466;2022-10-23T05:18:34;10.20;86.71
68098;DHT22;54886;47.036;15.466;2022-10-23T05:21:08;10.13;86.72
68098;DHT22;54886;47.036;15.466;2022-10-23T05:23:35;10.15;86.24
68098;DHT22;54886;47.036;15.466;2022-10-23T05:26:02;10.14;85.96
68098;DHT22;54886;47.036;15.466;2022-10-23T05:28:28;10.07;86.46
68098;DHT22;54886;47.036;15.466;2022-10-23T05:30:54;10.01;86.55
68098;DHT22;54886;47.036;15.466;2022-10-23T05:33:19;10.03;86.47
68098;DHT22;54886;47.036;15.466;2022-10-23T05:35:45;10.03;86.26
68098;DHT22;54886;47.036;15.466;2022-10-23T05:38:11;10.01;85.88
68098;DHT22;54886;47.036;15.466;2022-10-23T05:40:37;10.04;86.05
68098;DHT22;54886;47.036;15.466;2022-10-23T05:43:02;9.94;86.04
68098;DHT22;54886;47.036;15.466;2022-10-23T05:45:28;9.89;86.31
68098;DHT22;54886;47.036;15.466;2022-10-23T05:47:53;9.91;86.46
68098;DHT22;54886;47.036;15.466;2022-10-23T05:50:18;9.89;86.41
68098;DHT22;54886;47.036;15.466;2022-10-23T05:52:47;9.86;86.37
68098;DHT22;54886;47.036;15.466;2022-10-23T05:55:14;9.77;86.32
68098;DHT22;54886;47.036;15.466;2022-10-23T05:57:39;9.69;86.34
68098;DHT22;54886;47.036;15.466;2022-10-23T06:00:05;9.72;86.32
68098;DHT22;54886;47.036;15.466;2022-10-23T06:02:32;9.73;86.71
68098;DHT22;54886;47.036;15.466;2022-10-23T06:04:57;9.73;86.67
68098;DHT22;54886;47.036;15.466;2022-10-23T06:07:24;9.73;86.82
68098;DHT22;54886;47.036;15.466;2022-10-23T06:09:50;9.73;86.89
68098;DHT22;54886;47.036;15.466;2022-10-23T06:12:17;9.75;86.70
68098;DHT22;54886;47.036;15.466;2022-10-23T06:14:43;9.75;86.40
68098;DHT22;54886;47.036;15.466;2022-10-23T06:17:08;9.68;87.00
68098;DHT22;54886;47.036;15.466;2022-10-23T06:19:33;9.72;87.31
68098;DHT22;54886;47.036;15.466;2022-10-23T06:21:59;9.72;87.15
68098;DHT22;54886;47.036;15.466;2022-10-23T06:24:24;9.72;87.01
68098;DHT22;54886;47.036;15.466;2022-10-23T06:26:50;9.70;87.16
68098;DHT22;54886;47.036;15.466;2022-10-23T06:29:15;9.75;87.21
68098;DHT22;54886;47.036;15.466;2022-10-23T06:31:40;9.69;87.46
68098;DHT22;54886;47.036;15.466;2022-10-23T06:34:08;9.69;87.48
68098;DHT22;54886;47.036;15.466;2022-10-23T06:36:34;9.70;87.30
68098;DHT22;54886;47.036;15.466;2022-10-23T06:39:02;9.79;86.71
68098;DHT22;54886;47.036;15.466;2022-10-23T06:41:28;9.82;87.31
68098;DHT22;54886;47.036;15.466;2022-10-23T06:43:53;9.79;87.37
68098;DHT22;54886;47.036;15.466;2022-10-23T06:46:19;9.80;87.62
68098;DHT22;54886;47.036;15.466;2022-10-23T06:48:44;9.82;87.32
68098;DHT22;54886;47.036;15.466;2022-10-23T06:51:11;9.80;87.65
68098;DHT22;54886;47.036;15.466;2022-10-23T06:53:38;9.79;87.59
68098;DHT22;54886;47.036;15.466;2022-10-23T06:56:05;9.82;87.72
68098;DHT22;54886;47.036;15.466;2022-10-23T06:58:31;9.76;87.89
68098;DHT22;54886;47.036;15.466;2022-10-23T07:00:59;9.80;87.81
68098;DHT22;54886;47.036;15.466;2022-10-23T07:03:25;9.80;87.64
68098;DHT22;54886;47.036;15.466;2022-10-23T07:05:50;9.86;87.87
68098;DHT22;54886;47.036;15.466;2022-10-23T07:08:15;9.87;87.87
68098;DHT22;54886;47.036;15.466;2022-10-23T07:10:41;9.94;87.50
68098;DHT22;54886;47.036;15.466;2022-10-23T07:13:08;9.89;88.22
68098;DHT22;54886;47.036;15.466;2022-10-23T07:15:34;9.91;87.46
68098;DHT22;54886;47.036;15.466;2022-10-23T07:18:00;9.96;87.52
68098;DHT22;54886;47.036;15.466;2022-10-23T07:20:25;9.93;87.98
68098;DHT22;54886;47.036;15.466;2022-10-23T07:22:52;10.00;87.96
68098;DHT22;54886;47.036;15.466;2022-10-23T07:25:19;10.03;88.09
68098;DHT22;54886;47.036;15.466;2022-10-23T07:27:45;10.03;88.31
68098;DHT22;54886;47.036;15.466;2022-10-23T07:30:11;10.07;87.75
68098;DHT22;54886;47.036;15.466;2022-10-23T07:32:36;10.13;87.86
68098;DHT22;54886;47.036;15.466;2022-10-23T07:35:02;10.17;87.96
68098;DHT22;54886;47.036;15.466;2022-10-23T07:37:28;10.13;88.19
68098;DHT22;54886;47.036;15.466;2022-10-23T07:39:54;10.18;87.85
68098;DHT22;54886;47.036;15.466;2022-10-23T07:42:20;10.21;87.39
68098;DHT22;54886;47.036;15.466;2022-10-23T07:44:45;10.17;88.20
68098;DHT22;54886;47.036;15.466;2022-10-23T07:47:11;10.17;88.17
68098;DHT22;54886;47.036;15.466;2022-10-23T07:49:36;10.18;88.31
68098;DHT22;54886;47.036;15.466;2022-10-23T07:52:04;10.24;88.31
68098;DHT22;54886;47.036;15.466;2022-10-23T07:54:29;10.25;88.81
68098;DHT22;54886;47.036;15.466;2022-10-23T07:56:55;10.31;87.60
68098;DHT22;54886;47.036;15.466;2022-10-23T07:59:20;10.38;88.77
68098;DHT22;54886;47.036;15.466;2022-10-23T08:01:46;10.40;89.03
68098;DHT22;54886;47.036;15.466;2022-10-23T08:04:12;10.44;88.59
68098;DHT22;54886;47.036;15.466;2022-10-23T08:06:38;10.45;88.92
68098;DHT22;54886;47.036;15.466;2022-10-23T08:09:04;10.51;89.03
68098;DHT22;54886;47.036;15.466;2022-10-23T08:11:29;10.51;88.81
68098;DHT22;54886;47.036;15.466;2022-10-23T08:14:00;10.53;89.13
68098;DHT22;54886;47.036;15.466;2022-10-23T08:16:33;10.58;89.55
68098;DHT22;54886;47.036;15.466;2022-10-23T08:18:59;10.62;89.61
68098;DHT22;54886;47.036;15.466;2022-10-23T08:21:25;10.66;89.95
68098;DHT22;54886;47.036;15.466;2022-10-23T08:23:55;10.69;89.54
68098;DHT22;54886;47.036;15.466;2022-10-23T08:26:21;10.66;89.89
68098;DHT22;54886;47.036;15.466;2022-10-23T08:28:48;10.73;89.56
68098;DHT22;54886;47.036;15.466;2022-10-23T08:31:15;10.72;89.87
68098;DHT22;54886;47.036;15.466;2022-10-23T08:33:41;10.75;89.60
68098;DHT22;54886;47.036;15.466;2022-10-23T08:38:46;10.79;88.47
68098;DHT22;54886;47.036;15.466;2022-10-23T08:44:08;10.89;89.28
68098;DHT22;54886;47.036;15.466;2022-10-23T08:46:41;10.93;89.15
68098;DHT22;54886;47.036;15.466;2022-10-23T08:49:18;10.99;89.44
68098;DHT22;54886;47.036;15.466;2022-10-23T08:51:47;11.04;89.05
68098;DHT22;54886;47.036;15.466;2022-10-23T08:57:03;11.18;89.12
68098;DHT22;54886;47.036;15.466;2022-10-23T08:59:43;11.28;89.57
68098;DHT22;54886;47.036;15.466;2022-10-23T09:02:16;11.28;89.11
68098;DHT22;54886;47.036;15.466;2022-10-23T09:04:46;11.27;88.45
68098;DHT22;54886;47.036;15.466;2022-10-23T09:11:01;11.23;88.93
68098;DHT22;54886;47.036;15.466;2022-10-23T09:19:10;11.32;88.66
68098;DHT22;54886;47.036;15.466;2022-10-23T09:21:36;11.39;89.02
68098;DHT22;54886;47.036;15.466;2022-10-23T09:24:02;11.43;89.39
68098;DHT22;54886;47.036;15.466;2022-10-23T09:26:27;11.48;89.45
68098;DHT22;54886;47.036;15.466;2022-10-23T09:29:12;11.48;89.10
68098;DHT22;54886;47.036;15.466;2022-10-23T09:31:52;11.46;88.63
68098;DHT22;54886;47.036;15.466;2022-10-23T09:34:21;11.49;88.55
68098;DHT22;54886;47.036;15.466;2022-10-23T09:36:57;11.51;88.97
68098;DHT22;54886;47.036;15.466;2022-10-23T09:39:29;11.58;89.00
68098;DHT22;54886;47.036;15.466;2022-10-23T09:41:55;11.59;89.44
68098;DHT22;54886;47.036;15.466;2022-10-23T09:44:29;11.61;88.71
68098;DHT22;54886;47.036;15.466;2022-10-23T09:49:32;11.65;87.65
68098;DHT22;54886;47.036;15.466;2022-10-23T09:54:38;11.68;88.47
68098;DHT22;54886;47.036;15.466;2022-10-23T09:57:28;11.72;88.24
68098;DHT22;54886;47.036;15.466;2022-10-23T10:00:00;11.76;88.19
68098;DHT22;54886;47.036;15.466;2022-10-23T10:02:34;11.79;88.71
68098;DHT22;54886;47.036;15.466;2022-10-23T10:05:24;11.83;88.14
68098;DHT22;54886;47.036;15.466;2022-10-23T10:10:44;12.00;88.98
68098;DHT22;54886;47.036;15.466;2022-10-23T10:15:59;12.12;89.18
68098;DHT22;54886;47.036;15.466;2022-10-23T10:18:41;12.13;87.44
68098;DHT22;54886;47.036;15.466;2022-10-23T10:23:58;12.20;87.20
68098;DHT22;54886;47.036;15.466;2022-10-23T10:36:52;12.37;86.38
68098;DHT22;54886;47.036;15.466;2022-10-23T10:39:34;12.42;86.36
68098;DHT22;54886;47.036;15.466;2022-10-23T10:42:17;12.46;86.20
68098;DHT22;54886;47.036;15.466;2022-10-23T10:50:20;12.60;85.86
68098;DHT22;54886;47.036;15.466;2022-10-23T10:55:34;12.78;86.12
68098;DHT22;54886;47.036;15.466;2022-10-23T10:58:23;12.85;86.25
68098;DHT22;54886;47.036;15.466;2022-10-23T11:00:55;12.89;86.12
68098;DHT22;54886;47.036;15.466;2022-10-23T11:05:52;13.06;87.00
68098;DHT22;54886;47.036;15.466;2022-10-23T11:08:36;13.13;86.83
68098;DHT22;54886;47.036;15.466;2022-10-23T11:13:38;13.23;86.27
68098;DHT22;54886;47.036;15.466;2022-10-23T11:18:41;13.41;87.17
68098;DHT22;54886;47.036;15.466;2022-10-23T11:21:21;13.44;86.18
68098;DHT22;54886;47.036;15.466;2022-10-23T11:24:16;13.51;86.00
68098;DHT22;54886;47.036;15.466;2022-10-23T11:34:57;13.83;86.60
68098;DHT22;54886;47.036;15.466;2022-10-23T11:37:26;13.85;85.15
68098;DHT22;54886;47.036;15.466;2022-10-23T11:40:20;13.87;84.78
68098;DHT22;54886;47.036;15.466;2022-10-23T11:42:48;13.95;85.84
68098;DHT22;54886;47.036;15.466;2022-10-23T11:45:27;13.99;84.76
68098;DHT22;54886;47.036;15.466;2022-10-23T11:47:59;14.10;85.05
68098;DHT22;54886;47.036;15.466;2022-10-23T11:50:36;14.10;84.54
68098;DHT22;54886;47.036;15.466;2022-10-23T11:58:52;14.24;83.84
68098;DHT22;54886;47.036;15.466;2022-10-23T12:06:21;14.46;82.55
68098;DHT22;54886;47.036;15.466;2022-10-23T12:08:52;14.52;81.91
68098;DHT22;54886;47.036;15.466;2022-10-23T12:11:26;14.57;81.02
68098;DHT22;54886;47.036;15.466;2022-10-23T12:13:52;14.58;80.91
68098;DHT22;54886;47.036;15.466;2022-10-23T12:16:17;14.61;80.34
68098;DHT22;54886;47.036;15.466;2022-10-23T12:18:50;14.62;80.56
68098;DHT22;54886;47.036;15.466;2022-10-23T12:21:24;14.68;81.25
68098;DHT22;54886;47.036;15.466;2022-10-23T12:40:19;14.92;79.66
68098;DHT22;54886;47.036;15.466;2022-10-23T12:42:53;14.99;78.51
68098;DHT22;54886;47.036;15.466;2022-10-23T12:45:22;14.97;77.71
68098;DHT22;54886;47.036;15.466;2022-10-23T12:47:49;15.03;77.63
68098;DHT22;54886;47.036;15.466;2022-10-23T12:50:27;15.03;78.00
68098;DHT22;54886;47.036;15.466;2022-10-23T12:53:01;15.00;77.91
68098;DHT22;54886;47.036;15.466;2022-10-23T12:55:29;15.02;79.06
68098;DHT22;54886;47.036;15.466;2022-10-23T12:57:56;15.08;78.50
68098;DHT22;54886;47.036;15.466;2022-10-23T13:00:24;15.14;78.24
68098;DHT22;54886;47.036;15.466;2022-10-23T13:02:59;15.17;78.57
68098;DHT22;54886;47.036;15.466;2022-10-23T13:05:25;15.23;78.92
68098;DHT22;54886;47.036;15.466;2022-10-23T13:07:52;15.26;78.06
68098;DHT22;54886;47.036;15.466;2022-10-23T13:10:20;15.23;78.04
68098;DHT22;54886;47.036;15.466;2022-10-23T13:12:52;15.24;78.39
68098;DHT22;54886;47.036;15.466;2022-10-23T13:15:20;15.27;78.29
68098;DHT22;54886;47.036;15.466;2022-10-23T13:20:37;15.27;79.35
68098;DHT22;54886;47.036;15.466;2022-10-23T13:26:01;15.30;79.25
68098;DHT22;54886;47.036;15.466;2022-10-23T13:28:42;15.31;79.51
68098;DHT22;54886;47.036;15.466;2022-10-23T13:33:38;15.38;79.31
68098;DHT22;54886;47.036;15.466;2022-10-23T13:38:41;15.44;78.72
68098;DHT22;54886;47.036;15.466;2022-10-23T13:41:18;15.41;78.93
68098;DHT22;54886;47.036;15.466;2022-10-23T13:43:45;15.44;79.22
68098;DHT22;54886;47.036;15.466;2022-10-23T13:46:13;15.47;79.26
68098;DHT22;54886;47.036;15.466;2022-10-23T13:48:39;15.48;80.60
68098;DHT22;54886;47.036;15.466;2022-10-23T13:51:21;15.50;80.03
68098;DHT22;54886;47.036;15.466;2022-10-23T13:53:49;15.57;80.22
68098;DHT22;54886;47.036;15.466;2022-10-23T13:56:17;15.63;79.81
68098;DHT22;54886;47.036;15.466;2022-10-23T13:58:42;15.63;79.27
68098;DHT22;54886;47.036;15.466;2022-10-23T14:01:28;15.68;79.76
68098;DHT22;54886;47.036;15.466;2022-10-23T14:03:55;15.72;78.55
68098;DHT22;54886;47.036;15.466;2022-10-23T14:06:20;15.70;79.37
68098;DHT22;54886;47.036;15.466;2022-10-23T14:08:46;15.75;79.54
68098;DHT22;54886;47.036;15.466;2022-10-23T14:11:13;15.75;79.74
68098;DHT22;54886;47.036;15.466;2022-10-23T14:13:39;15.73;79.73
68098;DHT22;54886;47.036;15.466;2022-10-23T14:16:05;15.78;79.35
68098;DHT22;54886;47.036;15.466;2022-10-23T14:18:31;15.76;79.30
68098;DHT22;54886;47.036;15.466;2022-10-23T14:21:00;15.75;79.77
68098;DHT22;54886;47.036;15.466;2022-10-23T14:23:26;15.75;79.58
68098;DHT22;54886;47.036;15.466;2022-10-23T14:25:51;15.76;80.03
68098;DHT22;54886;47.036;15.466;2022-10-23T14:28:17;15.81;79.97
68098;DHT22;54886;47.036;15.466;2022-10-23T14:30:42;15.82;79.73
68098;DHT22;54886;47.036;15.466;2022-10-23T14:33:08;15.79;79.88
68098;DHT22;54886;47.036;15.466;2022-10-23T14:35:38;15.83;80.37
68098;DHT22;54886;47.036;15.466;2022-10-23T14:38:04;15.82;80.55
68098;DHT22;54886;47.036;15.466;2022-10-23T14:40:29;15.83;80.55
68098;DHT22;54886;47.036;15.466;2022-10-23T14:42:55;15.83;80.40
68098;DHT22;54886;47.036;15.466;2022-10-23T14:45:20;15.82;80.47
68098;DHT22;54886;47.036;15.466;2022-10-23T14:47:45;15.82;80.39
68098;DHT22;54886;47.036;15.466;2022-10-23T14:50:12;15.85;80.04
68098;DHT22;54886;47.036;15.466;2022-10-23T14:52:38;15.83;80.34
68098;DHT22;54886;47.036;15.466;2022-10-23T14:55:03;15.83;80.64
68098;DHT22;54886;47.036;15.466;2022-10-23T14:57:29;15.83;80.77
68098;DHT22;54886;47.036;15.466;2022-10-23T14:59:54;15.82;80.63
68098;DHT22;54886;47.036;15.466;2022-10-23T15:02:20;15.82;79.79
68098;DHT22;54886;47.036;15.466;2022-10-23T15:04:45;15.83;79.95
68098;DHT22;54886;47.036;15.466;2022-10-23T15:07:10;15.82;80.27
68098;DHT22;54886;47.036;15.466;2022-10-23T15:09:36;15.78;80.59
68098;DHT22;54886;47.036;15.466;2022-10-23T15:12:03;15.79;80.78
68098;DHT22;54886;47.036;15.466;2022-10-23T15:14:29;15.78;80.83
68098;DHT22;54886;47.036;15.466;2022-10-23T15:16:55;15.78;80.82
68098;DHT22;54886;47.036;15.466;2022-10-23T15:19:20;15.75;81.01
68098;DHT22;54886;47.036;15.466;2022-10-23T15:21:47;15.75;81.15
68098;DHT22;54886;47.036;15.466;2022-10-23T15:24:13;15.70;81.48
68098;DHT22;54886;47.036;15.466;2022-10-23T15:26:38;15.70;81.25
68098;DHT22;54886;47.036;15.466;2022-10-23T15:29:06;15.68;81.54
68098;DHT22;54886;47.036;15.466;2022-10-23T15:34:22;15.61;81.71
68098;DHT22;54886;47.036;15.466;2022-10-23T15:36:48;15.61;81.90
68098;DHT22;54886;47.036;15.466;2022-10-23T15:39:16;15.58;82.04
68098;DHT22;54886;47.036;15.466;2022-10-23T15:41:43;15.55;81.94
68098;DHT22;54886;47.036;15.466;2022-10-23T15:44:12;15.55;81.87
68098;DHT22;54886;47.036;15.466;2022-10-23T15:46:37;15.52;82.23
68098;DHT22;54886;47.036;15.466;2022-10-23T15:49:03;15.47;81.90
68098;DHT22;54886;47.036;15.466;2022-10-23T15:51:28;15.44;82.19
68098;DHT22;54886;47.036;15.466;2022-10-23T15:53:54;15.42;82.27
68098;DHT22;54886;47.036;15.466;2022-10-23T15:56:21;15.40;81.80
68098;DHT22;54886;47.036;15.466;2022-10-23T15:58:47;15.37;81.91
68098;DHT22;54886;47.036;15.466;2022-10-23T16:01:12;15.32;82.03
68098;DHT22;54886;47.036;15.466;2022-10-23T16:03:38;15.27;82.15
68098;DHT22;54886;47.036;15.466;2022-10-23T16:06:05;15.26;82.06
68098;DHT22;54886;47.036;15.466;2022-10-23T16:08:31;15.23;81.95
68098;DHT22;54886;47.036;15.466;2022-10-23T16:10:56;15.19;82.13
68098;DHT22;54886;47.036;15.466;2022-10-23T16:13:24;15.16;82.04
68098;DHT22;54886;47.036;15.466;2022-10-23T16:15:49;15.13;82.39
68098;DHT22;54886;47.036;15.466;2022-10-23T16:18:15;15.08;82.21
68098;DHT22;54886;47.036;15.466;2022-10-23T16:20:42;15.02;82.50
68098;DHT22;54886;47.036;15.466;2022-10-23T16:23:07;14.99;82.28
68098;DHT22;54886;47.036;15.466;2022-10-23T16:25:36;14.93;82.21
68098;DHT22;54886;47.036;15.466;2022-10-23T16:28:02;14.90;82.15
68098;DHT22;54886;47.036;15.466;2022-10-23T16:30:28;14.85;82.31
68098;DHT22;54886;47.036;15.466;2022-10-23T16:32:53;14.83;82.56
68098;DHT22;54886;47.036;15.466;2022-10-23T16:35:20;14.82;82.14
68098;DHT22;54886;47.036;15.466;2022-10-23T16:37:45;14.79;82.34
68098;DHT22;54886;47.036;15.466;2022-10-23T16:40:11;14.76;82.18
68098;DHT22;54886;47.036;15.466;2022-10-23T16:42:37;14.75;82.26
68098;DHT22;54886;47.036;15.466;2022-10-23T16:45:05;14.68;82.11
68098;DHT22;54886;47.036;15.466;2022-10-23T16:47:31;14.68;82.29
68098;DHT22;54886;47.036;15.466;2022-10-23T16:49:56;14.62;82.54
68098;DHT22;54886;47.036;15.466;2022-10-23T16:52:24;14.58;82.32
68098;DHT22;54886;47.036;15.466;2022-10-23T16:54:50;14.59;82.38
68098;DHT22;54886;47.036;15.466;2022-10-23T16:57:15;14.57;82.53
68098;DHT22;54886;47.036;15.466;2022-10-23T16:59:40;14.48;82.35
68098;DHT22;54886;47.036;15.466;2022-10-23T17:02:08;14.48;82.17
68098;DHT22;54886;47.036;15.466;2022-10-23T17:04:35;14.42;83.13
68098;DHT22;54886;47.036;15.466;2022-10-23T17:07:00;14.37;82.95
68098;DHT22;54886;47.036;15.466;2022-10-23T17:09:26;14.35;82.49
68098;DHT22;54886;47.036;15.466;2022-10-23T17:11:55;14.30;82.56
68098;DHT22;54886;47.036;15.466;2022-10-23T17:14:20;14.24;83.11
68098;DHT22;54886;47.036;15.466;2022-10-23T17:16:50;14.18;83.08
68098;DHT22;54886;47.036;15.466;2022-10-23T17:19:18;14.21;82.40
68098;DHT22;54886;47.036;15.466;2022-10-23T17:21:44;14.16;82.71
68098;DHT22;54886;47.036;15.466;2022-10-23T17:24:11;14.10;83.15
68098;DHT22;54886;47.036;15.466;2022-10-23T17:26:38;14.10;84.06
68098;DHT22;54886;47.036;15.466;2022-10-23T17:29:05;14.10;83.81
68098;DHT22;54886;47.036;15.466;2022-10-23T17:31:35;14.10;83.94
68098;DHT22;54886;47.036;15.466;2022-10-23T17:34:03;14.06;83.70
68098;DHT22;54886;47.036;15.466;2022-10-23T17:36:32;14.02;83.09
68098;DHT22;54886;47.036;15.466;2022-10-23T17:38:58;14.00;82.88
68098;DHT22;54886;47.036;15.466;2022-10-23T17:41:24;13.95;83.16
68098;DHT22;54886;47.036;15.466;2022-10-23T17:43:50;13.91;83.04
68098;DHT22;54886;47.036;15.466;2022-10-23T17:46:19;13.89;83.47
68098;DHT22;54886;47.036;15.466;2022-10-23T17:48:44;13.85;83.11